Rolla, North Dakota
Current Conditions -  °F | °C
As of 7:35 AM on Thursday 23 Oct 2014 (Local Time) from K06D Reporting Station
Clear Clear  
Wind Chill:   Ceiling: Unl
Heat Index:   Visibility: 10mi
Dew Point:   Wind: 12mph
Humidity: 87%   Direction: 230°SW
Pressure: 29.82"   Gusts: NA
Location:  48.86°N, 99.62°W
Report Text: K06D 231235Z AUTO 23010KT 10SM CLR 05/03 A2982 RMK AO2
Loading
Personal Weather Stations






























Interactive Weather Map
Tropical Storm Tracking
New forecast layout! Learn more

10-Day Weather Forecast

Advertisements
Track Severe Weather on mobile